createdAt,value
2022-09-15T00:02:06.244Z,97915.27
2022-09-15T00:04:58.440Z,97915.64
2022-09-15T00:07:50.673Z,97919.77
2022-09-15T00:10:32.782Z,97922.45
2022-09-15T00:13:27.454Z,97923.85
2022-09-15T00:16:22.379Z,97925.45
2022-09-15T00:19:14.528Z,97922.58
2022-09-15T00:22:06.749Z,97918.14
2022-09-15T00:24:54.095Z,97912.27
2022-09-15T00:27:46.030Z,97909.67
2022-09-15T00:30:40.775Z,97900.13
2022-09-15T00:33:32.835Z,97888.16
2022-09-15T00:36:27.021Z,97881.73
2022-09-15T00:39:19.266Z,97876.65
2022-09-15T00:42:15.796Z,97870.66
2022-09-15T00:45:15.543Z,97856.64
2022-09-15T00:48:09.631Z,97855.57
2022-09-15T00:51:03.027Z,97848.08
2022-09-15T00:53:55.724Z,97846.42
2022-09-15T00:56:50.711Z,97855.00
2022-09-15T00:59:45.517Z,97866.23
2022-09-15T01:02:39.515Z,97853.73
2022-09-15T01:05:48.682Z,97843.95
2022-09-15T01:08:45.222Z,97848.94
2022-09-15T01:11:28.542Z,97844.81
2022-09-15T01:14:20.878Z,97836.71
2022-09-15T01:17:11.609Z,97835.88
2022-09-15T01:20:35.226Z,97838.30
2022-09-15T01:24:00.202Z,97832.54
2022-09-15T01:27:18.510Z,97824.66
2022-09-15T01:30:18.210Z,97824.47
2022-09-15T01:33:18.840Z,97829.63
2022-09-15T01:36:17.168Z,97823.35
2022-09-15T01:39:15.467Z,97813.22
2022-09-15T01:42:13.362Z,97805.91
2022-09-15T01:45:09.839Z,97795.35
2022-09-15T01:48:03.900Z,97789.10
2022-09-15T01:51:00.683Z,97785.89
2022-09-15T01:53:54.037Z,97788.02
2022-09-15T01:56:46.716Z,97788.59
2022-09-15T01:59:39.117Z,97785.13
2022-09-15T02:02:36.980Z,97779.80
2022-09-15T02:05:33.645Z,97777.08
2022-09-15T02:08:31.396Z,97774.27
2022-09-15T02:11:28.312Z,97772.16
2022-09-15T02:14:26.244Z,97760.31
2022-09-15T02:17:20.756Z,97766.38
2022-09-15T02:20:16.134Z,97763.73
2022-09-15T02:23:12.860Z,97762.55
2022-09-15T02:26:10.218Z,97755.23
2022-09-15T02:29:07.454Z,97757.43
2022-09-15T02:32:06.987Z,97759.91
2022-09-15T02:35:07.883Z,97757.91
2022-09-15T02:38:01.453Z,97750.74
2022-09-15T02:40:54.178Z,97744.19
2022-09-15T02:43:47.653Z,97743.08
2022-09-15T02:46:40.429Z,97736.04
2022-09-15T02:49:32.614Z,97734.09
2022-09-15T02:52:04.805Z,97736.98
2022-09-15T02:54:57.123Z,97728.61
2022-09-15T02:57:49.411Z,97725.89
2022-09-15T03:00:42.664Z,97723.30
2022-09-15T03:03:41.107Z,97720.83
2022-09-15T03:06:36.208Z,97709.10
2022-09-15T03:09:28.753Z,97699.14
2022-09-15T03:12:21.142Z,97697.92
2022-09-15T03:15:15.895Z,97700.33
2022-09-15T03:17:58.011Z,97701.71
2022-09-15T03:20:50.268Z,97705.25
2022-09-15T03:23:43.333Z,97697.11
2022-09-15T03:26:35.776Z,97689.87
2022-09-15T03:29:28.481Z,97681.44
2022-09-15T03:32:10.900Z,97686.45
2022-09-15T03:34:42.835Z,97682.14
2022-09-15T03:37:35.445Z,97672.20
2022-09-15T03:40:27.651Z,97662.14
2022-09-15T03:43:20.006Z,97651.29
2022-09-15T03:46:14.721Z,97656.06
2022-09-15T03:49:06.220Z,97650.48
2022-09-15T03:51:58.927Z,97648.30
2022-09-15T03:54:52.005Z,97645.75
2022-09-15T03:57:44.579Z,97647.42
2022-09-15T04:00:37.778Z,97634.45
2022-09-15T04:03:23.110Z,97635.34
2022-09-15T04:06:15.919Z,97633.72
2022-09-15T04:09:08.809Z,97631.06
2022-09-15T04:12:01.320Z,97628.95
2022-09-15T04:14:54.110Z,97625.14
2022-09-15T04:17:46.755Z,97622.73
2022-09-15T04:20:30.022Z,97620.25
2022-09-15T04:23:22.314Z,97617.36
2022-09-15T04:26:19.977Z,97624.58
2022-09-15T04:29:14.896Z,97626.65
2022-09-15T04:32:07.473Z,97625.98
2022-09-15T04:34:59.605Z,97623.05
2022-09-15T04:37:51.831Z,97624.89
2022-09-15T04:40:44.045Z,97624.97
2022-09-15T04:43:36.861Z,97621.88
2022-09-15T04:46:30.722Z,97622.84
2022-09-15T04:49:23.326Z,97627.85
2022-09-15T04:52:15.974Z,97626.61
2022-09-15T04:55:10.836Z,97623.37
2022-09-15T04:58:03.490Z,97622.20
2022-09-15T05:00:55.887Z,97625.19
2022-09-15T05:03:49.475Z,97624.27
2022-09-15T05:06:41.831Z,97619.15
2022-09-15T05:09:34.678Z,97615.80
2022-09-15T05:12:27.982Z,97618.64
2022-09-15T05:15:13.865Z,97610.17
2022-09-15T05:18:06.540Z,97609.77
2022-09-15T05:20:38.545Z,97609.97
2022-09-15T05:23:31.455Z,97608.33
2022-09-15T05:26:25.822Z,97610.45
2022-09-15T05:29:06.767Z,97615.46
2022-09-15T05:31:59.037Z,97611.65
2022-09-15T05:34:53.612Z,97621.83
2022-09-15T05:37:45.990Z,97625.80
2022-09-15T05:40:38.353Z,97630.68
2022-09-15T05:43:23.290Z,97635.41
2022-09-15T05:46:09.348Z,97634.38
2022-09-15T05:49:02.135Z,97629.95
2022-09-15T05:51:35.090Z,97626.14
2022-09-15T05:54:28.469Z,97627.72
2022-09-15T05:57:21.259Z,97626.67
2022-09-15T06:00:15.673Z,97625.61
2022-09-15T06:03:08.856Z,97624.27
2022-09-15T06:06:03.579Z,97624.02
2022-09-15T06:08:59.432Z,97623.20
2022-09-15T06:11:52.300Z,97625.83
2022-09-15T06:14:37.176Z,97625.17
2022-09-15T06:17:29.840Z,97626.66
2022-09-15T06:20:22.558Z,97619.44
2022-09-15T06:23:14.783Z,97615.33
2022-09-15T06:26:12.908Z,97612.13
2022-09-15T06:29:06.862Z,97613.17
2022-09-15T06:32:02.805Z,97614.08
2022-09-15T06:34:55.164Z,97616.05
2022-09-15T06:37:47.743Z,97614.58
2022-09-15T06:40:39.888Z,97615.41
2022-09-15T06:43:33.553Z,97614.11
2022-09-15T06:46:28.417Z,97613.23
2022-09-15T06:49:21.982Z,97614.80
2022-09-15T06:52:13.144Z,97614.09
2022-09-15T06:55:06.148Z,97610.89
2022-09-15T06:57:58.651Z,97603.67
2022-09-15T07:00:50.874Z,97609.09
2022-09-15T07:03:44.516Z,97608.43
2022-09-15T07:06:28.661Z,97611.63
2022-09-15T07:09:20.922Z,97618.39
2022-09-15T07:11:55.920Z,97623.21
2022-09-15T07:14:48.098Z,97619.25
2022-09-15T07:17:40.617Z,97621.31
2022-09-15T07:20:33.084Z,97631.05
2022-09-15T07:23:25.405Z,97637.84
2022-09-15T07:26:19.266Z,97642.90
2022-09-15T07:29:12.320Z,97650.61
2022-09-15T07:32:05.042Z,97650.61
2022-09-15T07:34:58.522Z,97655.06
2022-09-15T07:37:50.030Z,97658.25
2022-09-15T07:40:42.343Z,97657.70
2022-09-15T07:43:35.353Z,97661.30
2022-09-15T07:46:31.442Z,97670.69
2022-09-15T07:49:17.118Z,97678.67
2022-09-15T07:52:10.097Z,97686.02
2022-09-15T07:55:02.496Z,97683.04
2022-09-15T07:58:00.650Z,97682.95
2022-09-15T08:00:53.038Z,97676.20
2022-09-15T08:03:40.332Z,97680.79
2022-09-15T08:06:34.820Z,97684.02
2022-09-15T08:09:20.985Z,97688.49
2022-09-15T08:12:13.503Z,97690.90
2022-09-15T08:14:50.677Z,97695.88
2022-09-15T08:17:43.226Z,97702.48
2022-09-15T08:20:35.671Z,97705.69
2022-09-15T08:23:28.341Z,97712.02
2022-09-15T08:26:21.132Z,97718.39
2022-09-15T08:29:13.606Z,97722.40
2022-09-15T08:32:06.229Z,97726.25
2022-09-15T08:34:58.539Z,97731.96
2022-09-15T08:37:51.373Z,97731.08
2022-09-15T08:40:48.322Z,97733.75
2022-09-15T08:43:38.649Z,97740.18
2022-09-15T08:46:37.700Z,97735.15
2022-09-15T08:49:51.067Z,97733.59
2022-09-15T08:52:31.615Z,97733.83
2022-09-15T08:55:34.688Z,97738.38
2022-09-15T08:58:30.845Z,97746.83
2022-09-15T09:01:37.499Z,97751.02
2022-09-15T09:04:48.435Z,97751.01
2022-09-15T09:07:40.101Z,97745.35
2022-09-15T09:10:42.846Z,97751.31
2022-09-15T09:13:42.450Z,97751.58
2022-09-15T09:16:45.041Z,97752.11
2022-09-15T09:20:00.411Z,97756.89
2022-09-15T09:22:55.349Z,97763.02
2022-09-15T09:25:49.808Z,97763.08
2022-09-15T09:28:49.205Z,97766.83
2022-09-15T09:31:42.985Z,97777.80
2022-09-15T09:34:32.898Z,97776.27
2022-09-15T09:37:15.639Z,97777.34
2022-09-15T09:40:13.476Z,97782.92
2022-09-15T09:43:04.420Z,97781.92
2022-09-15T09:45:56.751Z,97779.13
2022-09-15T09:48:39.877Z,97785.56
2022-09-15T09:51:35.173Z,97791.52
2022-09-15T09:54:28.814Z,97791.70
2022-09-15T09:57:32.614Z,97791.61
2022-09-15T10:00:39.918Z,97792.17
2022-09-15T10:03:33.127Z,97794.21
2022-09-15T10:06:08.464Z,97795.00
2022-09-15T10:09:04.877Z,97799.45
2022-09-15T10:12:00.470Z,97807.46
2022-09-15T10:14:56.423Z,97813.06
2022-09-15T10:17:50.821Z,97820.02
2022-09-15T10:20:51.181Z,97823.11
2022-09-15T10:23:43.862Z,97824.58
2022-09-15T10:26:37.725Z,97823.88
2022-09-15T10:29:38.256Z,97827.86
2022-09-15T10:32:32.291Z,97833.45
2022-09-15T10:35:16.878Z,97845.20
2022-09-15T10:38:14.130Z,97846.48
2022-09-15T10:41:03.699Z,97846.27
2022-09-15T10:44:20.157Z,97846.35
2022-09-15T10:47:12.864Z,97846.02
2022-09-15T10:50:16.857Z,97844.41
2022-09-15T10:53:15.299Z,97845.76
2022-09-15T10:56:16.511Z,97840.75
2022-09-15T10:59:35.581Z,97839.04
2022-09-15T11:02:49.390Z,97842.91
2022-09-15T11:05:52.058Z,97841.20
2022-09-15T11:09:00.991Z,97839.81
2022-09-15T11:12:05.567Z,97847.95
2022-09-15T11:15:17.607Z,97859.76
2022-09-15T11:18:38.979Z,97859.55
2022-09-15T11:21:35.865Z,97869.77
2022-09-15T11:24:30.303Z,97869.30
2022-09-15T11:27:28.934Z,97868.05
2022-09-15T11:30:24.417Z,97862.13
2022-09-15T11:33:02.535Z,97864.66
2022-09-15T11:36:00.447Z,97871.06
2022-09-15T11:38:57.980Z,97868.22
2022-09-15T11:41:56.613Z,97863.80
2022-09-15T11:44:50.869Z,97871.66
2022-09-15T11:47:40.835Z,97869.33
2022-09-15T11:50:29.413Z,97872.84
2022-09-15T11:53:28.719Z,97871.84
2022-09-15T11:56:27.481Z,97870.14
2022-09-15T11:59:29.535Z,97871.98
2022-09-15T12:02:29.569Z,97874.33
2022-09-15T12:05:25.431Z,97876.21
2022-09-15T12:08:17.421Z,97883.05
2022-09-15T12:11:13.421Z,97890.10
2022-09-15T12:14:07.015Z,97896.64
2022-09-15T12:17:11.431Z,97899.39
2022-09-15T12:20:07.963Z,97900.68
2022-09-15T12:23:12.942Z,97902.00
2022-09-15T12:26:15.495Z,97907.04
2022-09-15T12:29:41.902Z,97909.33
2022-09-15T12:32:35.687Z,97913.92
2022-09-15T12:35:34.345Z,97914.60
2022-09-15T12:38:33.193Z,97915.91
2022-09-15T12:41:05.670Z,97916.09
2022-09-15T12:44:00.275Z,97922.82
2022-09-15T12:46:56.338Z,97927.19
2022-09-15T12:49:49.321Z,97920.33
2022-09-15T12:52:51.505Z,97916.36
2022-09-15T12:55:51.885Z,97915.82
2022-09-15T12:58:34.744Z,97914.54
2022-09-15T13:01:50.426Z,97916.50
2022-09-15T13:04:58.092Z,97915.30
2022-09-15T13:07:58.880Z,97911.22
2022-09-15T13:11:04.732Z,97904.01
2022-09-15T13:14:10.760Z,97906.73
2022-09-15T13:17:07.043Z,97910.91
2022-09-15T13:19:52.770Z,97917.51
2022-09-15T13:22:51.021Z,97904.77
2022-09-15T13:25:44.948Z,97897.31
2022-09-15T13:28:38.464Z,97895.33
2022-09-15T13:31:40.474Z,97889.32
2022-09-15T13:35:20.663Z,97887.36
2022-09-15T13:38:32.099Z,97884.89
2022-09-15T13:41:43.921Z,97874.73
2022-09-15T13:45:05.119Z,97871.66
2022-09-15T13:48:19.428Z,97874.42
2022-09-15T13:51:20.694Z,97878.18
2022-09-15T13:54:19.261Z,97876.80
2022-09-15T13:57:11.564Z,97869.08
2022-09-15T14:00:10.946Z,97869.35
2022-09-15T14:03:12.407Z,97868.52
2022-09-15T14:06:10.659Z,97865.36
2022-09-15T14:09:08.076Z,97861.98
2022-09-15T14:12:00.526Z,97865.47
2022-09-15T14:14:50.856Z,97863.05
2022-09-15T14:17:48.163Z,97871.98
2022-09-15T14:20:40.203Z,97873.73
2022-09-15T14:23:33.070Z,97870.29
2022-09-15T14:26:17.183Z,97872.55
2022-09-15T14:28:57.357Z,97874.90
2022-09-15T14:31:50.333Z,97875.13
2022-09-15T14:34:43.166Z,97867.66
2022-09-15T14:37:27.820Z,97861.92
2022-09-15T14:40:27.825Z,97866.70
2022-09-15T14:43:32.520Z,97873.05
2022-09-15T14:46:25.015Z,97869.75
2022-09-15T14:49:18.002Z,97870.77
2022-09-15T14:51:55.177Z,97864.42
2022-09-15T14:54:47.360Z,97860.21
2022-09-15T15:00:47.743Z,97856.89
2022-09-15T15:03:47.612Z,97850.98
2022-09-15T15:06:46.395Z,97842.93
2022-09-15T15:09:33.909Z,97843.92
2022-09-15T15:12:28.448Z,97844.19
2022-09-15T15:15:20.071Z,97843.41
2022-09-15T15:18:38.612Z,97840.64
2022-09-15T15:21:44.038Z,97837.59
2022-09-15T15:24:24.382Z,97832.40
2022-09-15T15:27:43.825Z,97831.73
2022-09-15T15:30:44.603Z,97833.70
2022-09-15T15:33:36.819Z,97836.81
2022-09-15T15:36:30.811Z,97836.23
2022-09-15T15:39:26.607Z,97837.27
2022-09-15T15:42:17.631Z,97836.92
2022-09-15T15:45:24.343Z,97841.44
2022-09-15T15:48:16.527Z,97836.34
2022-09-15T15:51:09.426Z,97843.35
2022-09-15T15:54:01.589Z,97833.35
2022-09-15T15:56:53.995Z,97830.61
2022-09-15T15:59:47.448Z,97827.30
2022-09-15T16:02:39.512Z,97821.79
2022-09-15T16:05:32.754Z,97817.52
2022-09-15T16:08:30.322Z,97812.27
2022-09-15T16:11:22.352Z,97814.63
2022-09-15T16:14:16.515Z,97816.14
2022-09-15T16:17:08.506Z,97808.42
2022-09-15T16:20:00.295Z,97800.83
2022-09-15T16:22:44.886Z,97800.09
2022-09-15T16:25:44.121Z,97796.91
2022-09-15T16:28:36.322Z,97798.02
2022-09-15T16:31:28.562Z,97797.07
2022-09-15T16:34:20.871Z,97802.52
2022-09-15T16:37:14.094Z,97804.77
2022-09-15T16:40:07.141Z,97798.82
2022-09-15T16:42:59.199Z,97801.59
2022-09-15T16:45:52.967Z,97806.73
2022-09-15T16:48:47.398Z,97811.61
2022-09-15T16:51:31.567Z,97812.50
2022-09-15T16:54:23.952Z,97813.81
2022-09-15T16:57:18.306Z,97808.67
2022-09-15T17:00:14.726Z,97808.70
2022-09-15T17:03:09.062Z,97809.08
2022-09-15T17:06:02.399Z,97807.99
2022-09-15T17:08:55.736Z,97814.70
2022-09-15T17:11:31.879Z,97818.46
2022-09-15T17:14:24.079Z,97823.88
2022-09-15T17:17:05.235Z,97822.61
2022-09-15T17:19:58.120Z,97823.71
2022-09-15T17:22:51.249Z,97823.76
2022-09-15T17:25:49.014Z,97825.36
2022-09-15T17:28:39.725Z,97820.70
2022-09-15T17:31:32.745Z,97817.59
2022-09-15T17:34:24.895Z,97811.73
2022-09-15T17:37:17.132Z,97812.80
2022-09-15T17:40:10.820Z,97808.10
2022-09-15T17:43:03.592Z,97800.78
2022-09-15T17:45:49.349Z,97793.72
2022-09-15T17:48:31.204Z,97791.14
2022-09-15T17:51:23.375Z,97794.84
2022-09-15T17:54:07.538Z,97798.38
2022-09-15T17:57:02.681Z,97802.73
2022-09-15T17:59:54.800Z,97800.10
2022-09-15T18:02:36.757Z,97796.66
2022-09-15T18:05:30.677Z,97797.98
2022-09-15T18:08:23.021Z,97802.73
2022-09-15T18:11:07.552Z,97804.45
2022-09-15T18:14:00.910Z,97811.91
2022-09-15T18:16:53.028Z,97817.39
2022-09-15T18:19:45.760Z,97819.11
2022-09-15T18:22:37.993Z,97818.44
2022-09-15T18:25:32.158Z,97819.62
2022-09-15T18:28:24.359Z,97819.73
2022-09-15T18:31:16.884Z,97817.91
2022-09-15T18:34:10.594Z,97819.02
2022-09-15T18:37:03.095Z,97817.84
2022-09-15T18:39:55.486Z,97819.05
2022-09-15T18:42:29.908Z,97817.63
2022-09-15T18:45:03.866Z,97817.48
2022-09-15T18:47:35.763Z,97819.34
2022-09-15T18:50:13.288Z,97820.86
2022-09-15T18:52:47.928Z,97827.60
2022-09-15T18:55:43.819Z,97828.19
2022-09-15T18:58:28.454Z,97825.13
2022-09-15T19:01:20.743Z,97823.66
2022-09-15T19:04:13.285Z,97824.62
2022-09-15T19:07:05.344Z,97826.40
2022-09-15T19:09:58.531Z,97828.84
2022-09-15T19:12:51.296Z,97831.77
2022-09-15T19:15:44.274Z,97832.29
2022-09-15T19:18:37.062Z,97832.27
2022-09-15T19:21:29.239Z,97834.42
2022-09-15T19:24:15.708Z,97839.10
2022-09-15T19:27:10.029Z,97841.05
2022-09-15T19:30:02.410Z,97846.65
2022-09-15T19:32:34.921Z,97851.87
2022-09-15T19:35:27.014Z,97851.80
2022-09-15T19:38:07.731Z,97856.86
2022-09-15T19:41:06.779Z,97864.41
2022-09-15T19:44:01.457Z,97865.61
2022-09-15T19:46:46.052Z,97867.89
2022-09-15T19:49:17.869Z,97876.33
2022-09-15T19:51:54.962Z,97882.54
2022-09-15T19:54:31.624Z,97881.64
2022-09-15T19:57:16.374Z,97880.61
2022-09-15T20:00:11.706Z,97879.53
2022-09-15T20:02:57.169Z,97883.14
2022-09-15T20:05:54.082Z,97890.09
2022-09-15T20:08:48.250Z,97893.45
2022-09-15T20:11:40.380Z,97894.11
2022-09-15T20:14:34.807Z,97887.36
2022-09-15T20:17:28.573Z,97893.92
2022-09-15T20:20:22.901Z,97884.77
2022-09-15T20:23:16.167Z,97886.25
2022-09-15T20:26:05.429Z,97892.87
2022-09-15T20:29:01.300Z,97887.13
2022-09-15T20:31:54.903Z,97878.36
2022-09-15T20:34:50.003Z,97867.58
2022-09-15T20:37:43.241Z,97866.31
2022-09-15T20:40:32.970Z,97874.80
2022-09-15T20:43:27.980Z,97874.73
2022-09-15T20:46:22.936Z,97871.36
2022-09-15T20:49:16.668Z,97868.26
2022-09-15T20:52:09.873Z,97868.34
2022-09-15T20:55:02.987Z,97875.54
2022-09-15T20:57:56.092Z,97879.13
2022-09-15T21:00:49.102Z,97883.07
2022-09-15T21:03:43.011Z,97885.18
2022-09-15T21:06:26.827Z,97888.39
2022-09-15T21:09:19.563Z,97892.91
2022-09-15T21:12:12.400Z,97900.38
2022-09-15T21:15:05.282Z,97903.61
2022-09-15T21:17:58.274Z,97899.84
2022-09-15T21:20:57.619Z,97898.11
2022-09-15T21:23:51.866Z,97901.64
2022-09-15T21:26:58.429Z,97907.68
2022-09-15T21:29:53.730Z,97910.86
2022-09-15T21:32:46.241Z,97914.89
2022-09-15T21:35:40.194Z,97914.23
2022-09-15T21:38:32.696Z,97918.11
2022-09-15T21:41:27.352Z,97917.14
2022-09-15T21:44:13.145Z,97922.92
2022-09-15T21:47:05.716Z,97919.02
2022-09-15T21:50:01.464Z,97921.23
2022-09-15T21:52:47.134Z,97926.21
2022-09-15T21:55:40.885Z,97926.89
2022-09-15T21:58:39.013Z,97927.46
2022-09-15T22:01:35.976Z,97940.50
2022-09-15T22:04:28.498Z,97946.67
2022-09-15T22:07:21.840Z,97951.95
2022-09-15T22:10:14.409Z,97952.23
2022-09-15T22:13:07.613Z,97960.44
2022-09-15T22:16:05.741Z,97967.20
2022-09-15T22:18:52.298Z,97974.88
2022-09-15T22:21:36.906Z,97975.34
2022-09-15T22:24:29.538Z,97979.62
2022-09-15T22:27:22.063Z,97979.23
2022-09-15T22:30:09.444Z,97975.16
2022-09-15T22:32:51.863Z,97976.40
2022-09-15T22:35:49.580Z,97972.21
2022-09-15T22:38:42.258Z,97975.84
2022-09-15T22:41:28.884Z,97977.21
2022-09-15T22:44:22.965Z,97981.66
2022-09-15T22:47:15.466Z,97988.86
2022-09-15T22:50:08.598Z,97987.46
2022-09-15T22:53:00.273Z,97995.12
2022-09-15T22:55:53.177Z,98004.65
2022-09-15T22:58:34.767Z,98001.33
2022-09-15T23:01:28.639Z,98007.58
2022-09-15T23:04:13.122Z,98008.52
2022-09-15T23:07:05.752Z,98002.71
2022-09-15T23:09:47.932Z,97999.11
2022-09-15T23:12:39.079Z,98005.57
2022-09-15T23:15:31.161Z,98007.78
2022-09-15T23:18:23.159Z,98011.48
2022-09-15T23:21:15.822Z,98011.44
2022-09-15T23:23:59.299Z,98010.27
2022-09-15T23:26:43.705Z,98010.86
2022-09-15T23:29:28.593Z,98018.72
2022-09-15T23:32:20.681Z,98022.65
2022-09-15T23:35:13.169Z,98027.78
2022-09-15T23:38:05.363Z,98024.79
2022-09-15T23:40:57.343Z,98024.52
2022-09-15T23:43:33.293Z,98024.14
2022-09-15T23:46:25.341Z,98022.90
2022-09-15T23:49:18.778Z,98027.55
2022-09-15T23:52:10.953Z,98028.22
2022-09-15T23:55:04.149Z,98034.29
2022-09-15T23:57:49.057Z,98031.17
